WetterOnline ( http://www.wetteronline.ch )

Wetter aktuell Kassel

Aktuelles Wetter: Schauenburg-Elgershausen (317m)

6-stündlich | Neueste Meldungen
Ortszeit Temperatur Wetter
Mo, 21.01. 19:00 -5.4° C wolkenlos
Mo, 21.01. 13:00 -3.6° C leicht bewölkt
Mo, 21.01. 7:00 -8.2° C wolkenlos
Mo, 21.01. 1:00 -7.6° C wolkenlos
So, 20.01. 19:00 -2.5° C wolkenlos
So, 20.01. 13:00 -1.2° C wolkenlos
So, 20.01. 7:00 -6.7° C wolkenlos
So, 20.01. 1:00 -5.9° C wolkenlos
Ortszeit Temperatur Wetter
Mo, 21.01. 21:30 -6.9° C fast wolkenlos
Mo, 21.01. 21:20 -6.9° C fast wolkenlos
Mo, 21.01. 21:10 -7.2° C fast wolkenlos
Mo, 21.01. 21:00 -6.2° C leicht bewölkt
Mo, 21.01. 20:50 -6.2° C leicht bewölkt
Mo, 21.01. 20:40 -6.6° C leicht bewölkt
Mo, 21.01. 20:30 -6.1° C leicht bewölkt
Mo, 21.01. 20:00 -5.5° C wolkenlos
Mo, 21.01. 19:30 -5.8° C wolkenlos
Mo, 21.01. 19:00 -5.4° C wolkenlos
Mo, 21.01. 18:30 -5.2° C wolkenlos
Ortszeit Relative Feuchte Sichtweite
Mo, 21.01. 19:00 86% 12 km
Mo, 21.01. 13:00 75% 17 km
Mo, 21.01. 7:00 87% 13 km
Mo, 21.01. 1:00 88% 10 km
So, 20.01. 19:00 66% 30 km
So, 20.01. 13:00 59% 30 km
So, 20.01. 7:00 80% 35 km
So, 20.01. 1:00 78% 50 km
Ortszeit Relative Feuchte Sichtweite
Mo, 21.01. 21:30 88% 9 km
Mo, 21.01. 21:20 88% -
Mo, 21.01. 21:10 88% -
Mo, 21.01. 21:00 87% 11 km
Mo, 21.01. 20:50 87% -
Mo, 21.01. 20:40 86% -
Mo, 21.01. 20:30 86% 10 km
Mo, 21.01. 20:00 85% 11 km
Mo, 21.01. 19:30 86% 12 km
Mo, 21.01. 19:00 86% 12 km
Mo, 21.01. 18:30 86% 12 km
Ortszeit Niederschlagsmenge Niederschlagsart
Mo, 21.01. 19:00 0.0 l/m2 in 12 Std. -
Mo, 21.01. 13:00 0.0 l/m2 in 6 Std. -
Mo, 21.01. 7:00 0.0 l/m2 in 12 Std. -
Mo, 21.01. 1:00 0.0 l/m2 in 6 Std. -
So, 20.01. 19:00 0.0 l/m2 in 12 Std. -
So, 20.01. 13:00 0.0 l/m2 in 6 Std. -
So, 20.01. 7:00 0.0 l/m2 in 12 Std. -
So, 20.01. 1:00 0.0 l/m2 in 6 Std. -
Ortszeit Niederschlagsmenge Niederschlagsart
Mo, 21.01. 21:30 0.0 l/m2 in 1 Std. -
Mo, 21.01. 21:20 keine Meldung -
Mo, 21.01. 21:10 keine Meldung -
Mo, 21.01. 21:00 0.0 l/m2 in 1 Std. -
Mo, 21.01. 20:50 keine Meldung -
Mo, 21.01. 20:40 keine Meldung -
Mo, 21.01. 20:30 0.0 l/m2 in 1 Std. -
Mo, 21.01. 20:00 0.0 l/m2 in 1 Std. -
Mo, 21.01. 19:30 0.0 l/m2 in 1 Std. -
Mo, 21.01. 19:00 0.0 l/m2 in 1 Std. -
Mo, 21.01. 18:30 0.0 l/m2 in 1 Std. -
Ortszeit Stärke Spitze Richtung
km/h Bft. km/h Grad Sektor
Mo, 21.01. 19:00 4 1 14 310° NW
Mo, 21.01. 13:00 11 2 18 150° SO
Mo, 21.01. 7:00 4 1 11 50° NO
Mo, 21.01. 1:00 4 1 14 350° N
So, 20.01. 19:00 7 2 17 360° N
So, 20.01. 13:00 7 2 11 160° S
So, 20.01. 7:00 4 1 11 340° N
So, 20.01. 1:00 4 1 11 10° N
Ortszeit Stärke Spitze Richtung
km/h Bft. km/h Grad Sektor
Mo, 21.01. 21:30 2 1 6 20° N
Mo, 21.01. 21:20 2 1 - 20° N
Mo, 21.01. 21:10 2 1 - 350° N
Mo, 21.01. 21:00 4 1 11 330° NW
Mo, 21.01. 20:50 4 1 - 330° NW
Mo, 21.01. 20:40 6 1 - 320° NW
Mo, 21.01. 20:30 6 1 7 320° NW
Mo, 21.01. 20:00 6 1 11 330° NW
Mo, 21.01. 19:30 4 1 11 320° NW
Mo, 21.01. 19:00 4 1 14 310° NW
Mo, 21.01. 18:30 6 1 7 330° NW
Ortszeit Untergrenze Bedeckung Gattung
total tief tief mittel hoch
Mo, 21.01. 19:00 - 0/8 0/8 - - -
Mo, 21.01. 13:00 8100 m 8/8 0/8 - - -
Mo, 21.01. 7:00 - 0/8 0/8 - - -
Mo, 21.01. 1:00 - 0/8 0/8 - - -
So, 20.01. 19:00 - 0/8 0/8 - - -
So, 20.01. 13:00 - 0/8 0/8 - - -
So, 20.01. 7:00 - 0/8 0/8 - - -
So, 20.01. 1:00 - 0/8 0/8 - - -
Ortszeit Bedeckungsgrad in Achtel und Wolkenuntergrenze
Mo, 21.01. 21:30 2(7800m)
Mo, 21.01. 21:20 2(7800m)
Mo, 21.01. 21:10 1(9000m)
Mo, 21.01. 21:00 1(8100m) 3(9000m)
Mo, 21.01. 20:50 1(8100m) 3(9000m)
Mo, 21.01. 20:40 3(8100m) 4(9000m)
Mo, 21.01. 20:30 4(8100m) 5(9000m)
Mo, 21.01. 20:00 keine Wolken
Mo, 21.01. 19:30 keine Wolken
Mo, 21.01. 19:00 keine Wolken
Mo, 21.01. 18:30 keine Wolken
Ortszeit Luftdruck NN (hPa) Tendenz (hPa in 3 Std.)
Mo, 21.01. 19:00 1021 - 0,7
Mo, 21.01. 13:00 1024 - 1,0
Mo, 21.01. 7:00 1025 + 0,1
Mo, 21.01. 1:00 1024 + 1,2
So, 20.01. 19:00 1021 + 1,5
So, 20.01. 13:00 1019 + 0,8
So, 20.01. 7:00 1017 - 0,1
So, 20.01. 1:00 1017 - 0,1
Ortszeit Luftdruck NN (hPa) Tendenz (hPa in 3 Std.)
Mo, 21.01. 21:30 1021 - 0,3
Mo, 21.01. 21:20 1021 keine Meldung
Mo, 21.01. 21:10 1021 keine Meldung
Mo, 21.01. 21:00 1021 - 0,5
Mo, 21.01. 20:50 1021 keine Meldung
Mo, 21.01. 20:40 1021 keine Meldung
Mo, 21.01. 20:30 1021 - 0,8
Mo, 21.01. 20:00 1021 - 1,0
Mo, 21.01. 19:30 1022 - 0,6
Mo, 21.01. 19:00 1021 - 0,7
Mo, 21.01. 18:30 1021 - 1,1
Ortszeit Schneehöhe (cm)
Mo, 21.01. 19:00 3
Mo, 21.01. 13:00 3
Mo, 21.01. 7:00 3
Mo, 21.01. 1:00 3
So, 20.01. 19:00 3
So, 20.01. 13:00 3
So, 20.01. 7:00 3
So, 20.01. 1:00 2
Ortszeit Schneehöhe (cm)
Mo, 21.01. 21:30 3
Mo, 21.01. 21:20 3
Mo, 21.01. 21:10 3
Mo, 21.01. 21:00 3
Mo, 21.01. 20:50 3
Mo, 21.01. 20:40 3
Mo, 21.01. 20:30 3
Mo, 21.01. 20:00 3
Mo, 21.01. 19:30 3
Mo, 21.01. 19:00 3
Mo, 21.01. 18:30 3
Link zu dieser Seite / Seite empfehlen

Das Wetter in ...